createdAt,value
2022-10-24T00:00:09.799Z,2.50
2022-10-24T00:02:37.710Z,2.47
2022-10-24T00:05:06.222Z,3.03
2022-10-24T00:07:34.024Z,2.22
2022-10-24T00:10:01.804Z,2.80
2022-10-24T00:12:29.693Z,2.13
2022-10-24T00:14:58.927Z,2.22
2022-10-24T00:17:26.754Z,2.30
2022-10-24T00:19:54.727Z,2.42
2022-10-24T00:22:22.547Z,2.00
2022-10-24T00:24:50.383Z,2.25
2022-10-24T00:27:18.221Z,2.28
2022-10-24T00:29:46.093Z,2.53
2022-10-24T00:32:15.430Z,2.53
2022-10-24T00:34:43.224Z,2.40
2022-10-24T00:37:11.078Z,2.20
2022-10-24T00:39:38.907Z,2.90
2022-10-24T00:42:06.905Z,2.10
2022-10-24T00:44:38.344Z,2.03
2022-10-24T00:47:09.801Z,2.10
2022-10-24T00:49:49.326Z,2.20
2022-10-24T00:52:21.536Z,2.97
2022-10-24T00:57:22.119Z,2.45
2022-10-24T00:59:55.679Z,2.97
2022-10-24T01:02:23.576Z,2.97
2022-10-24T01:04:54.597Z,2.60
2022-10-24T01:07:39.208Z,2.67
2022-10-24T01:10:25.068Z,2.58
2022-10-24T01:13:00.934Z,2.83
2022-10-24T01:15:37.502Z,2.80
2022-10-24T01:18:11.593Z,2.10
2022-10-24T01:20:58.102Z,3.05
2022-10-24T01:23:57.101Z,2.35
2022-10-24T01:26:59.292Z,2.30
2022-10-24T01:29:49.473Z,3.03
2022-10-24T01:32:24.123Z,2.65
2022-10-24T01:35:00.676Z,2.72
2022-10-24T01:37:34.948Z,2.42
2022-10-24T01:40:12.167Z,2.80
2022-10-24T01:42:41.410Z,2.65
2022-10-24T01:45:14.522Z,2.65
2022-10-24T01:47:47.403Z,2.45
2022-10-24T01:50:16.977Z,3.15
2022-10-24T01:52:47.445Z,2.58
2022-10-24T01:55:15.433Z,2.65
2022-10-24T01:57:43.484Z,2.80
2022-10-24T02:00:18.836Z,3.03
2022-10-24T02:02:49.954Z,2.47
2022-10-24T02:05:22.516Z,2.38
2022-10-24T02:07:54.969Z,2.33
2022-10-24T02:10:27.132Z,1.75
2022-10-24T02:13:00.483Z,2.50
2022-10-24T02:15:32.634Z,2.67
2022-10-24T02:18:01.537Z,2.72
2022-10-24T02:20:34.509Z,1.98
2022-10-24T02:23:07.734Z,2.13
2022-10-24T02:25:38.039Z,2.80
2022-10-24T02:28:09.727Z,1.92
2022-10-24T02:30:44.733Z,1.90
2022-10-24T02:33:13.565Z,2.00
2022-10-24T02:35:43.133Z,2.00
2022-10-24T02:38:16.665Z,1.90
2022-10-24T02:40:47.040Z,1.83
2022-10-24T02:43:16.892Z,1.45
2022-10-24T02:45:46.682Z,2.13
2022-10-24T02:48:17.575Z,1.52
2022-10-24T02:50:45.682Z,1.90
2022-10-24T02:53:15.260Z,1.92
2022-10-24T02:55:43.338Z,1.60
2022-10-24T02:58:11.174Z,1.33
2022-10-24T03:00:39.016Z,1.40
2022-10-24T03:03:08.358Z,1.33
2022-10-24T03:05:36.244Z,1.83
2022-10-24T03:08:04.136Z,1.20
2022-10-24T03:10:31.951Z,1.40
2022-10-24T03:13:00.699Z,1.40
2022-10-24T03:15:28.530Z,1.70
2022-10-24T03:17:56.341Z,1.05
2022-10-24T03:20:25.892Z,1.38
2022-10-24T03:22:53.764Z,1.10
2022-10-24T03:25:21.569Z,1.10
2022-10-24T03:27:49.426Z,1.30
2022-10-24T03:30:17.273Z,1.20
2022-10-24T03:32:45.309Z,1.13
2022-10-24T03:35:14.267Z,1.35
2022-10-24T03:37:44.125Z,1.60
2022-10-24T03:40:12.577Z,1.33
2022-10-24T03:42:40.749Z,1.50
2022-10-24T03:45:09.831Z,1.25
2022-10-24T03:47:37.680Z,1.60
2022-10-24T03:50:06.339Z,1.50
2022-10-24T03:52:34.225Z,1.42
2022-10-24T03:55:03.490Z,1.35
2022-10-24T03:57:31.307Z,1.58
2022-10-24T03:59:59.100Z,1.10
2022-10-24T04:02:26.963Z,1.30
2022-10-24T04:04:54.762Z,1.75
2022-10-24T04:07:22.559Z,1.30
2022-10-24T04:09:50.778Z,1.42
2022-10-24T04:12:19.930Z,1.20
2022-10-24T04:14:47.849Z,1.17
2022-10-24T04:17:15.664Z,2.17
2022-10-24T04:19:43.855Z,2.00
2022-10-24T04:22:11.741Z,2.15
2022-10-24T04:24:39.590Z,1.80
2022-10-24T04:27:07.477Z,1.92
2022-10-24T04:29:37.089Z,1.40
2022-10-24T04:32:05.242Z,2.30
2022-10-24T04:34:35.822Z,1.80
2022-10-24T04:37:03.844Z,1.63
2022-10-24T04:39:31.662Z,1.67
2022-10-24T04:41:59.529Z,1.70
2022-10-24T04:44:27.415Z,2.20
2022-10-24T04:46:56.645Z,1.92
2022-10-24T04:49:24.442Z,2.30
2022-10-24T04:51:52.244Z,2.50
2022-10-24T04:54:20.066Z,2.28
2022-10-24T04:56:47.892Z,2.20
2022-10-24T04:59:15.700Z,1.92
2022-10-24T05:01:43.688Z,2.00
2022-10-24T05:04:13.642Z,2.05
2022-10-24T05:06:44.209Z,1.55
2022-10-24T05:09:12.957Z,2.13
2022-10-24T05:11:40.862Z,1.65
2022-10-24T05:14:08.709Z,1.52
2022-10-24T05:16:36.535Z,1.85
2022-10-24T05:19:04.366Z,2.00
2022-10-24T05:21:34.072Z,1.73
2022-10-24T05:24:01.896Z,1.83
2022-10-24T05:26:29.699Z,1.80
2022-10-24T05:28:57.575Z,1.88
2022-10-24T05:31:25.453Z,1.98
2022-10-24T05:33:53.346Z,2.38
2022-10-24T05:36:21.120Z,2.33
2022-10-24T05:38:50.265Z,1.88
2022-10-24T05:41:18.048Z,2.65
2022-10-24T05:43:45.862Z,2.00
2022-10-24T05:46:13.651Z,2.10
2022-10-24T05:48:41.462Z,2.08
2022-10-24T05:51:09.248Z,1.92
2022-10-24T05:53:37.084Z,1.77
2022-10-24T05:56:07.035Z,2.30
2022-10-24T05:58:35.198Z,2.03
2022-10-24T06:01:03.126Z,1.90
2022-10-24T06:03:30.959Z,2.33
2022-10-24T06:05:58.806Z,2.40
2022-10-24T06:08:26.625Z,2.30
2022-10-24T06:10:54.528Z,2.15
2022-10-24T06:13:23.660Z,2.03
2022-10-24T06:15:51.469Z,2.33
2022-10-24T06:18:19.315Z,2.30
2022-10-24T06:20:47.092Z,2.40
2022-10-24T06:23:14.901Z,2.67
2022-10-24T06:25:43.183Z,2.38
2022-10-24T06:28:12.342Z,2.60
2022-10-24T06:30:42.461Z,2.40
2022-10-24T06:33:10.276Z,2.47
2022-10-24T06:35:38.077Z,1.90
2022-10-24T06:38:05.942Z,2.40
2022-10-24T06:40:33.723Z,2.13
2022-10-24T06:43:01.546Z,2.38
2022-10-24T06:45:29.451Z,2.08
2022-10-24T06:47:58.626Z,2.13
2022-10-24T06:50:26.523Z,2.10
2022-10-24T06:52:54.325Z,2.30
2022-10-24T06:55:22.302Z,1.92
2022-10-24T06:57:50.096Z,1.50
2022-10-24T07:00:18.506Z,1.67
2022-10-24T07:02:46.707Z,2.03
2022-10-24T07:05:16.136Z,1.80
2022-10-24T07:07:45.261Z,1.63
2022-10-24T07:10:15.255Z,1.80
2022-10-24T07:12:44.359Z,2.00
2022-10-24T07:15:13.543Z,2.28
2022-10-24T07:17:41.749Z,1.85
2022-10-24T07:20:11.158Z,1.50
2022-10-24T07:22:40.606Z,1.45
2022-10-24T07:25:09.466Z,1.85
2022-10-24T07:27:37.261Z,2.15
2022-10-24T07:30:06.073Z,1.95
2022-10-24T07:32:34.113Z,2.50
2022-10-24T07:35:02.998Z,2.20
2022-10-24T07:37:30.773Z,1.90
2022-10-24T07:39:59.917Z,2.00
2022-10-24T07:42:27.729Z,2.00
2022-10-24T07:44:55.545Z,1.75
2022-10-24T07:47:23.353Z,2.15
2022-10-24T07:49:51.377Z,2.67
2022-10-24T07:52:19.171Z,4.07
2022-10-24T07:54:46.952Z,2.15
2022-10-24T07:57:16.160Z,1.77
2022-10-24T07:59:43.952Z,2.28
2022-10-24T08:02:12.590Z,1.42
2022-10-24T08:04:40.913Z,1.85
2022-10-24T08:07:13.277Z,1.80
2022-10-24T08:09:42.719Z,2.80
2022-10-24T08:12:10.991Z,1.88
2022-10-24T08:14:41.425Z,1.60
2022-10-24T08:17:09.346Z,1.70
2022-10-24T08:19:43.695Z,1.67
2022-10-24T08:22:12.971Z,1.55
2022-10-24T08:24:40.829Z,1.67
2022-10-24T08:27:08.810Z,1.30
2022-10-24T08:29:36.666Z,1.58
2022-10-24T08:32:07.281Z,1.90
2022-10-24T08:34:35.560Z,1.45
2022-10-24T08:37:04.402Z,1.13
2022-10-24T08:39:32.290Z,1.83
2022-10-24T08:42:03.646Z,1.60
2022-10-24T08:44:35.613Z,1.73
2022-10-24T08:47:09.902Z,1.90
2022-10-24T08:49:45.243Z,1.65
2022-10-24T08:52:23.008Z,1.83
2022-10-24T08:54:52.891Z,1.70
2022-10-24T08:57:24.391Z,1.70
2022-10-24T08:59:54.578Z,1.52
2022-10-24T09:02:27.009Z,1.80
2022-10-24T09:04:57.615Z,1.98
2022-10-24T09:07:25.942Z,2.03
2022-10-24T09:10:08.841Z,2.03
2022-10-24T09:12:37.317Z,1.80
2022-10-24T09:15:15.314Z,1.90
2022-10-24T09:17:45.986Z,1.70
2022-10-24T09:20:25.477Z,1.65
2022-10-24T09:22:54.350Z,1.90
2022-10-24T09:25:24.275Z,1.95
2022-10-24T09:27:52.683Z,2.30
2022-10-24T09:30:22.488Z,1.90
2022-10-24T09:32:52.200Z,2.63
2022-10-24T09:35:22.665Z,2.47
2022-10-24T09:37:52.208Z,2.47
2022-10-24T09:40:23.452Z,2.28
2022-10-24T09:42:59.578Z,2.17
2022-10-24T09:45:35.910Z,2.00
2022-10-24T09:48:16.138Z,2.20
2022-10-24T09:50:45.520Z,2.08
2022-10-24T09:53:24.620Z,2.33
2022-10-24T09:55:54.936Z,2.20
2022-10-24T09:58:29.806Z,1.90
2022-10-24T10:01:00.309Z,2.45
2022-10-24T10:03:29.776Z,2.92
2022-10-24T10:06:00.218Z,2.80
2022-10-24T10:08:30.820Z,3.40
2022-10-24T10:11:01.622Z,3.10
2022-10-24T10:13:30.577Z,5.93
2022-10-24T10:16:01.824Z,2.63
2022-10-24T10:18:48.476Z,2.45
2022-10-24T10:21:18.514Z,2.90
2022-10-24T10:23:48.900Z,3.03
2022-10-24T10:26:28.541Z,2.95
2022-10-24T10:29:00.153Z,2.95
2022-10-24T10:31:35.585Z,2.83
2022-10-24T10:34:23.065Z,2.95
2022-10-24T10:37:28.057Z,2.97
2022-10-24T10:40:21.482Z,2.70
2022-10-24T10:43:00.068Z,3.25
2022-10-24T10:45:36.552Z,3.22
2022-10-24T10:48:18.880Z,3.05
2022-10-24T10:50:52.998Z,3.20
2022-10-24T10:53:30.976Z,3.20
2022-10-24T10:56:06.636Z,2.97
2022-10-24T10:58:42.239Z,2.38
2022-10-24T11:01:17.573Z,3.08
2022-10-24T11:03:51.641Z,2.75
2022-10-24T11:06:37.670Z,2.95
2022-10-24T11:09:26.218Z,3.65
2022-10-24T11:11:58.769Z,2.30
2022-10-24T11:14:31.539Z,2.42
2022-10-24T11:17:05.954Z,2.58
2022-10-24T11:19:42.444Z,4.32
2022-10-24T11:22:20.233Z,3.33
2022-10-24T11:24:55.019Z,2.42
2022-10-24T11:27:27.258Z,2.50
2022-10-24T11:32:29.239Z,2.83
2022-10-24T11:35:01.506Z,2.65
2022-10-24T11:40:05.946Z,2.88
2022-10-24T11:42:43.270Z,2.50
2022-10-24T11:45:14.493Z,2.80
2022-10-24T11:48:00.720Z,2.40
2022-10-24T11:50:34.126Z,2.95
2022-10-24T11:53:19.213Z,2.95
2022-10-24T11:55:51.166Z,2.50
2022-10-24T11:58:22.412Z,3.00
2022-10-24T12:01:23.483Z,3.22
2022-10-24T12:04:16.427Z,2.63
2022-10-24T12:07:02.456Z,2.42
2022-10-24T12:09:50.926Z,2.40
2022-10-24T12:12:39.745Z,2.95
2022-10-24T12:15:18.980Z,2.00
2022-10-24T12:17:58.566Z,2.33
2022-10-24T12:20:27.815Z,2.67
2022-10-24T12:22:56.929Z,2.30
2022-10-24T12:25:32.256Z,2.50
2022-10-24T12:28:02.249Z,2.35
2022-10-24T12:30:33.084Z,2.50
2022-10-24T12:33:10.589Z,2.55
2022-10-24T12:35:52.870Z,2.35
2022-10-24T12:39:05.679Z,1.90
2022-10-24T12:41:40.515Z,2.15
2022-10-24T12:44:46.201Z,2.08
2022-10-24T12:47:38.525Z,2.20
2022-10-24T12:50:43.759Z,1.65
2022-10-24T12:53:34.177Z,1.85
2022-10-24T12:58:57.998Z,1.70
2022-10-24T13:01:33.152Z,2.10
2022-10-24T13:04:34.665Z,2.05
2022-10-24T13:07:37.991Z,1.75
2022-10-24T13:10:34.348Z,2.10
2022-10-24T13:13:19.157Z,2.13
2022-10-24T13:15:55.433Z,2.10
2022-10-24T13:18:36.873Z,2.17
2022-10-24T13:21:15.205Z,2.10
2022-10-24T13:23:45.868Z,2.30
2022-10-24T13:26:37.482Z,2.20
2022-10-24T13:29:05.642Z,1.85
2022-10-24T13:31:44.052Z,1.83
2022-10-24T13:34:38.068Z,1.75
2022-10-24T13:37:13.470Z,3.65
2022-10-24T13:39:47.014Z,2.60
2022-10-24T13:42:26.379Z,2.05
2022-10-24T13:44:58.529Z,1.92
2022-10-24T13:47:32.468Z,1.75
2022-10-24T13:50:04.923Z,1.70
2022-10-24T13:52:39.537Z,1.63
2022-10-24T13:55:19.938Z,1.85
2022-10-24T13:57:53.914Z,1.70
2022-10-24T14:00:24.597Z,1.70
2022-10-24T14:02:55.358Z,1.88
2022-10-24T14:05:35.942Z,1.55
2022-10-24T14:08:04.065Z,1.90
2022-10-24T14:10:32.588Z,1.75
2022-10-24T14:13:01.265Z,1.65
2022-10-24T14:15:32.441Z,1.60
2022-10-24T14:18:04.042Z,1.40
2022-10-24T14:20:34.375Z,1.65
2022-10-24T14:23:02.793Z,1.70
2022-10-24T14:25:37.025Z,2.58
2022-10-24T14:28:14.957Z,2.05
2022-10-24T14:30:53.953Z,1.73
2022-10-24T14:33:25.597Z,2.70
2022-10-24T14:35:57.720Z,1.98
2022-10-24T14:38:27.918Z,2.20
2022-10-24T14:41:08.426Z,2.00
2022-10-24T14:43:39.782Z,1.58
2022-10-24T14:46:34.564Z,1.80
2022-10-24T14:49:21.583Z,1.63
2022-10-24T14:54:26.899Z,2.22
2022-10-24T14:56:55.708Z,1.77
2022-10-24T14:59:27.098Z,1.70
2022-10-24T15:01:57.069Z,1.73
2022-10-24T15:04:38.179Z,1.50
2022-10-24T15:07:16.307Z,1.52
2022-10-24T15:09:55.420Z,1.60
2022-10-24T15:12:33.953Z,2.00
2022-10-24T15:15:22.996Z,1.60
2022-10-24T15:17:52.246Z,1.63
2022-10-24T15:20:24.166Z,1.83
2022-10-24T15:22:56.137Z,1.48
2022-10-24T15:25:28.819Z,1.50
2022-10-24T15:28:00.102Z,1.70
2022-10-24T15:30:30.867Z,2.03
2022-10-24T15:33:00.625Z,1.73
2022-10-24T15:35:31.444Z,1.45
2022-10-24T15:38:01.988Z,1.58
2022-10-24T15:40:32.081Z,1.60
2022-10-24T15:43:00.060Z,1.88
2022-10-24T15:45:28.328Z,1.50
2022-10-24T15:47:56.150Z,1.30
2022-10-24T15:50:25.008Z,1.38
2022-10-24T15:52:57.053Z,1.00
2022-10-24T15:55:27.625Z,1.35
2022-10-24T15:57:57.010Z,1.20
2022-10-24T16:00:25.945Z,1.10
2022-10-24T16:02:55.912Z,0.93
2022-10-24T16:05:26.036Z,1.02
2022-10-24T16:07:55.174Z,0.75
2022-10-24T16:10:24.073Z,0.90
2022-10-24T16:12:52.390Z,0.93
2022-10-24T16:15:22.855Z,0.80
2022-10-24T16:17:50.849Z,0.70
2022-10-24T16:20:19.238Z,1.23
2022-10-24T16:22:48.017Z,1.10
2022-10-24T16:25:20.267Z,1.30
2022-10-24T16:30:18.836Z,0.80
2022-10-24T16:32:47.443Z,0.90
2022-10-24T16:35:19.486Z,0.80
2022-10-24T16:37:47.348Z,1.02
2022-10-24T16:40:15.161Z,1.17
2022-10-24T16:42:44.794Z,1.10
2022-10-24T16:45:13.028Z,1.00
2022-10-24T16:47:40.828Z,1.10
2022-10-24T16:50:09.534Z,1.23
2022-10-24T16:52:37.317Z,1.23
2022-10-24T16:55:05.454Z,1.20
2022-10-24T16:57:33.269Z,0.93
2022-10-24T17:00:02.471Z,1.15
2022-10-24T17:02:30.303Z,1.73
2022-10-24T17:04:58.122Z,2.50
2022-10-24T17:07:25.946Z,1.20
2022-10-24T17:09:53.769Z,1.23
2022-10-24T17:12:21.665Z,1.35
2022-10-24T17:14:49.657Z,1.27
2022-10-24T17:17:18.809Z,1.38
2022-10-24T17:19:48.240Z,1.15
2022-10-24T17:22:16.505Z,1.13
2022-10-24T17:24:44.738Z,1.10
2022-10-24T17:27:13.476Z,1.35
2022-10-24T17:29:42.191Z,1.48
2022-10-24T17:32:12.725Z,1.60
2022-10-24T17:34:43.257Z,1.40
2022-10-24T17:37:19.927Z,1.85
2022-10-24T17:39:51.106Z,1.70
2022-10-24T17:42:19.779Z,1.30
2022-10-24T17:44:48.445Z,0.95
2022-10-24T17:47:16.881Z,1.15
2022-10-24T17:49:46.341Z,1.33
2022-10-24T17:52:18.512Z,1.13
2022-10-24T17:54:46.346Z,1.20
2022-10-24T17:57:14.187Z,1.20
2022-10-24T17:59:42.054Z,2.05
2022-10-24T18:02:13.652Z,1.02
2022-10-24T18:04:42.892Z,1.30
2022-10-24T18:07:12.211Z,0.82
2022-10-24T18:09:40.144Z,1.02
2022-10-24T18:12:08.250Z,1.60
2022-10-24T18:14:37.470Z,1.30
2022-10-24T18:17:05.319Z,1.00
2022-10-24T18:19:33.215Z,0.98
2022-10-24T18:22:01.028Z,1.10
2022-10-24T18:24:30.182Z,1.35
2022-10-24T18:26:57.985Z,1.33
2022-10-24T18:29:25.992Z,0.75
2022-10-24T18:31:53.810Z,1.23
2022-10-24T18:34:21.610Z,0.90
2022-10-24T18:36:49.456Z,0.90
2022-10-24T18:39:17.322Z,0.90
2022-10-24T18:41:49.210Z,0.98
2022-10-24T18:44:27.665Z,0.80
2022-10-24T18:46:57.922Z,0.80
2022-10-24T18:49:26.358Z,0.88
2022-10-24T18:52:02.740Z,1.10
2022-10-24T18:54:31.000Z,0.70
2022-10-24T18:57:00.782Z,0.93
2022-10-24T18:59:30.745Z,0.93
2022-10-24T19:02:12.113Z,0.90
2022-10-24T19:04:42.920Z,0.90
2022-10-24T19:07:11.676Z,1.13
2022-10-24T19:09:39.692Z,1.40
2022-10-24T19:12:10.219Z,1.40
2022-10-24T19:14:38.465Z,1.00
2022-10-24T19:17:07.206Z,0.90
2022-10-24T19:19:35.775Z,0.93
2022-10-24T19:22:03.700Z,1.15
2022-10-24T19:24:31.506Z,1.20
2022-10-24T19:26:59.349Z,1.15
2022-10-24T19:29:28.614Z,1.05
2022-10-24T19:31:56.454Z,1.08
2022-10-24T19:34:24.258Z,1.10
2022-10-24T19:36:52.082Z,1.30
2022-10-24T19:39:19.921Z,1.20
2022-10-24T19:41:47.736Z,1.00
2022-10-24T19:44:15.807Z,1.38
2022-10-24T19:46:44.936Z,1.25
2022-10-24T19:49:12.767Z,1.17
2022-10-24T19:51:40.568Z,1.00
2022-10-24T19:54:08.394Z,1.20
2022-10-24T19:56:36.246Z,1.10
2022-10-24T19:59:04.035Z,1.10
2022-10-24T20:01:32.583Z,1.05
2022-10-24T20:04:02.136Z,1.02
2022-10-24T20:06:29.932Z,1.50
2022-10-24T20:08:57.945Z,1.40
2022-10-24T20:11:25.806Z,1.23
2022-10-24T20:13:53.622Z,1.30
2022-10-24T20:16:21.464Z,1.50
2022-10-24T20:18:49.503Z,1.48
2022-10-24T20:21:20.138Z,1.30
2022-10-24T20:23:48.726Z,1.00
2022-10-24T20:26:18.527Z,1.10
2022-10-24T20:28:47.961Z,1.40
2022-10-24T20:31:21.061Z,1.20
2022-10-24T20:33:49.129Z,1.25
2022-10-24T20:36:18.444Z,1.10
2022-10-24T20:38:46.317Z,1.02
2022-10-24T20:41:14.198Z,1.23
2022-10-24T20:43:42.027Z,1.00
2022-10-24T20:46:09.922Z,1.15
2022-10-24T20:48:37.773Z,1.40
2022-10-24T20:51:10.484Z,1.20
2022-10-24T20:53:40.588Z,1.10
2022-10-24T20:56:10.247Z,1.10
2022-10-24T20:58:39.781Z,1.60
2022-10-24T21:01:09.415Z,1.23
2022-10-24T21:03:37.918Z,1.40
2022-10-24T21:06:07.669Z,1.20
2022-10-24T21:08:35.465Z,1.30
2022-10-24T21:11:08.013Z,1.30
2022-10-24T21:13:35.813Z,1.15
2022-10-24T21:16:04.039Z,1.30
2022-10-24T21:18:32.384Z,1.08
2022-10-24T21:21:00.415Z,0.90
2022-10-24T21:23:28.288Z,0.95
2022-10-24T21:26:02.912Z,1.05
2022-10-24T21:28:32.127Z,1.00
2022-10-24T21:31:05.213Z,1.00
2022-10-24T21:33:33.367Z,1.02
2022-10-24T21:36:05.930Z,1.10
2022-10-24T21:38:33.760Z,1.23
2022-10-24T21:41:02.288Z,1.10
2022-10-24T21:43:33.982Z,1.10
2022-10-24T21:46:06.641Z,1.08
2022-10-24T21:48:34.998Z,1.17
2022-10-24T21:51:04.531Z,1.10
2022-10-24T21:53:32.359Z,1.48
2022-10-24T21:56:03.848Z,1.40
2022-10-24T21:58:33.301Z,1.73
2022-10-24T22:01:01.241Z,1.30
2022-10-24T22:03:29.102Z,1.33
2022-10-24T22:05:57.753Z,1.52
2022-10-24T22:08:25.659Z,1.08
2022-10-24T22:10:58.166Z,1.10
2022-10-24T22:13:26.017Z,1.35
2022-10-24T22:15:55.523Z,1.17
2022-10-24T22:18:23.665Z,1.33
2022-10-24T22:20:51.873Z,1.20
2022-10-24T22:23:20.317Z,1.15
2022-10-24T22:25:48.262Z,1.30
2022-10-24T22:28:16.674Z,1.23
2022-10-24T22:30:46.859Z,1.52
2022-10-24T22:33:21.693Z,1.27
2022-10-24T22:35:57.570Z,1.20
2022-10-24T22:38:25.683Z,1.10
2022-10-24T22:40:54.012Z,0.90
2022-10-24T22:43:22.296Z,0.82
2022-10-24T22:46:01.519Z,1.10
2022-10-24T22:48:34.832Z,1.08
2022-10-24T22:51:02.894Z,1.25
2022-10-24T22:53:32.222Z,1.02
2022-10-24T22:56:11.081Z,1.30
2022-10-24T22:58:39.463Z,1.00
2022-10-24T23:01:18.058Z,1.15
2022-10-24T23:04:00.277Z,0.88
2022-10-24T23:06:35.344Z,1.10
2022-10-24T23:09:03.155Z,0.98
2022-10-24T23:11:31.481Z,1.00
2022-10-24T23:13:59.714Z,0.90
2022-10-24T23:16:34.586Z,1.17
2022-10-24T23:19:07.034Z,0.90
2022-10-24T23:21:38.835Z,1.15
2022-10-24T23:24:13.849Z,1.33
2022-10-24T23:26:47.087Z,1.00
2022-10-24T23:29:24.874Z,0.90
2022-10-24T23:31:53.084Z,1.10
2022-10-24T23:34:22.960Z,1.30
2022-10-24T23:36:51.395Z,1.02
2022-10-24T23:41:49.229Z,1.45
2022-10-24T23:44:17.539Z,1.02
2022-10-24T23:46:48.784Z,1.13
2022-10-24T23:49:28.053Z,1.25
2022-10-24T23:52:03.633Z,1.20
2022-10-24T23:54:33.268Z,1.30
2022-10-24T23:57:01.940Z,1.02
2022-10-24T23:59:29.795Z,1.10
